Time;durP1;ratioP1;P1;durP2;ratioP2;P2;SDS_P1;SDS_P2;PMS_P1;PMS_P2;Temp;Humidity;BMP_temperature;BMP_pressure;BME280_temperature;BME280_humidity;BME280_pressure;Samples;Min_cycle;Max_cycle;Signal;HPM_P1;HPM_P2
2023/10/30 07:54:08;;;;;;;3.90;1.42;;;;;;;;;;13067962;22;20004;-89
2023/10/30 08:16:16;;;;;;;2.25;1.25;;;;;;;;;;12740029;23;20012;-82
2023/10/30 08:21:22;;;;;;;3.72;1.20;;;;;;;;;;13006647;22;20003;-85
2023/10/30 08:26:25;;;;;;;4.30;1.40;;;;;;;;;;13011931;22;20023;-84
2023/10/30 08:31:31;;;;;;;6.25;1.85;;;;;;;;;;13012492;22;20000;-83
2023/10/30 08:36:32;;;;;;;7.47;1.60;;;;;;;;;;13026820;22;20004;-84
2023/10/30 08:41:35;;;;;;;5.65;1.38;;;;;;;;;;13021732;22;20004;-85
2023/10/30 08:46:43;;;;;;;5.53;1.48;;;;;;;;;;13015783;22;20008;-85
2023/10/30 08:51:44;;;;;;;5.25;1.45;;;;;;;;;;13029568;22;20003;-85
2023/10/30 08:56:45;;;;;;;8.23;1.60;;;;;;;;;;13028936;22;20413;-84
2023/10/30 09:01:46;;;;;;;5.95;1.83;;;;;;;;;;13009649;22;20003;-82
2023/10/30 09:06:48;;;;;;;5.00;1.80;;;;;;;;;;13020416;22;20004;-83
2023/10/30 09:11:49;;;;;;;4.72;1.65;;;;;;;;;;13019991;22;20027;-84
2023/10/30 09:16:51;;;;;;;6.88;1.50;;;;;;;;;;13018504;22;20010;-83
2023/10/30 09:21:52;;;;;;;6.38;2.03;;;;;;;;;;13014885;22;20369;-85
2023/10/30 09:26:53;;;;;;;5.43;1.60;;;;;;;;;;13012542;22;20000;-84
2023/10/30 09:31:55;;;;;;;4.00;1.50;;;;;;;;;;13012386;22;20006;-84
2023/10/30 09:36:58;;;;;;;4.82;1.70;;;;;;;;;;13019571;22;20043;-83
2023/10/30 09:42:00;;;;;;;4.20;1.33;;;;;;;;;;13024968;22;20079;-85
2023/10/30 09:47:03;;;;;;;3.92;1.60;;;;;;;;;;13023861;22;20011;-85
2023/10/30 09:52:05;;;;;;;3.72;1.55;;;;;;;;;;13015474;22;20010;-84
2023/10/30 09:57:07;;;;;;;3.38;1.70;;;;;;;;;;13016276;22;20014;-84
2023/10/30 10:07:48;;;;;;;3.97;1.92;;;;;;;;;;13027669;22;20337;-84
2023/10/30 10:12:50;;;;;;;3.53;1.50;;;;;;;;;;13028067;22;20353;-84
2023/10/30 10:17:52;;;;;;;4.72;1.55;;;;;;;;;;13001118;22;20004;-85
2023/10/30 10:22:53;;;;;;;3.50;1.48;;;;;;;;;;13003747;22;20058;-84
2023/10/30 10:27:54;;;;;;;3.33;1.67;;;;;;;;;;13002761;22;20054;-85
2023/10/30 10:32:57;;;;;;;4.97;1.58;;;;;;;;;;13002696;22;20102;-84
2023/10/30 10:38:08;;;;;;;2.25;1.20;;;;;;;;;;13002720;22;20022;-85
2023/10/30 10:43:10;;;;;;;2.70;1.20;;;;;;;;;;13009851;22;20067;-84
2023/10/30 10:48:11;;;;;;;3.42;1.40;;;;;;;;;;13004667;22;20003;-86
2023/10/30 10:53:13;;;;;;;2.60;1.17;;;;;;;;;;13005051;22;20003;-84
2023/10/30 10:58:17;;;;;;;2.90;1.38;;;;;;;;;;13004630;22;20012;-85
2023/10/30 11:03:18;;;;;;;2.17;1.30;;;;;;;;;;13006422;22;20057;-85
2023/10/30 11:08:24;;;;;;;2.28;1.20;;;;;;;;;;13008007;22;20042;-84
2023/10/30 11:13:40;;;;;;;3.58;1.30;;;;;;;;;;13007691;22;20027;-84
2023/10/30 11:18:43;;;;;;;1.95;1.00;;;;;;;;;;13002986;22;20007;-83
2023/10/30 11:23:44;;;;;;;2.17;1.20;;;;;;;;;;13001927;22;20085;-84
2023/10/30 11:28:46;;;;;;;2.80;1.17;;;;;;;;;;13004525;22;20034;-83
2023/10/30 11:33:49;;;;;;;2.97;1.00;;;;;;;;;;13003446;22;20019;-83
2023/10/30 11:38:53;;;;;;;3.65;1.27;;;;;;;;;;13002892;22;20014;-84
2023/10/30 11:44:13;;;;;;;3.03;1.05;;;;;;;;;;12995554;22;20022;-84
2023/10/30 11:49:14;;;;;;;3.93;1.17;;;;;;;;;;12993297;22;20000;-83
2023/10/30 11:54:22;;;;;;;2.60;1.08;;;;;;;;;;12998253;22;20007;-84
2023/10/30 11:59:23;;;;;;;3.58;1.20;;;;;;;;;;13001492;22;20016;-83
2023/10/30 12:04:26;;;;;;;2.53;1.10;;;;;;;;;;13001779;22;20087;-84
2023/10/30 12:09:27;;;;;;;1.73;0.98;;;;;;;;;;13004760;22;20067;-83
2023/10/30 12:14:29;;;;;;;3.08;1.10;;;;;;;;;;13005590;22;20418;-84
2023/10/30 12:19:30;;;;;;;2.58;1.00;;;;;;;;;;13010447;22;20011;-82
2023/10/30 12:24:31;;;;;;;2.40;0.95;;;;;;;;;;13028022;22;20019;-84
2023/10/30 12:29:32;;;;;;;2.42;0.90;;;;;;;;;;13002577;22;20099;-83
2023/10/30 12:34:37;;;;;;;2.50;1.23;;;;;;;;;;13004412;22;20040;-85
2023/10/30 12:39:38;;;;;;;3.88;1.27;;;;;;;;;;13012283;22;20011;-83
2023/10/30 12:44:39;;;;;;;2.85;1.10;;;;;;;;;;13018564;22;20011;-83
2023/10/30 12:49:42;;;;;;;2.50;0.90;;;;;;;;;;13007832;22;20007;-84
2023/10/30 12:54:43;;;;;;;2.10;1.02;;;;;;;;;;13006740;22;20008;-83
2023/10/30 12:59:44;;;;;;;1.25;0.95;;;;;;;;;;13007179;22;20011;-83
2023/10/30 13:04:45;;;;;;;2.42;1.15;;;;;;;;;;12977451;22;20016;-84
2023/10/30 13:09:46;;;;;;;2.20;1.40;;;;;;;;;;12947563;22;20000;-84
2023/10/30 13:14:47;;;;;;;1.98;1.20;;;;;;;;;;12975549;22;20003;-84
2023/10/30 13:19:49;;;;;;;3.22;1.27;;;;;;;;;;13003548;22;20342;-84
2023/10/30 13:24:49;;;;;;;1.92;0.90;;;;;;;;;;12999248;22;20031;-84
2023/10/30 13:29:51;;;;;;;1.63;1.10;;;;;;;;;;13019846;22;20083;-84
2023/10/30 13:34:52;;;;;;;2.10;1.40;;;;;;;;;;13012037;22;20115;-85
2023/10/30 13:40:06;;;;;;;2.55;1.02;;;;;;;;;;13012479;22;20007;-85
2023/10/30 13:45:08;;;;;;;1.98;1.30;;;;;;;;;;13024122;22;20000;-84
2023/10/30 13:50:09;;;;;;;2.53;1.33;;;;;;;;;;13010949;22;20030;-83
2023/10/30 13:55:10;;;;;;;2.35;1.20;;;;;;;;;;13005050;22;20081;-84
2023/10/30 14:00:11;;;;;;;3.05;1.20;;;;;;;;;;13002845;22;19999;-83
2023/10/30 14:05:13;;;;;;;2.85;1.05;;;;;;;;;;13009346;22;20015;-83
2023/10/30 14:10:14;;;;;;;3.15;1.20;;;;;;;;;;13017510;22;19996;-84
2023/10/30 14:15:15;;;;;;;2.67;1.20;;;;;;;;;;13006828;22;20007;-84
2023/10/30 14:20:16;;;;;;;3.13;1.10;;;;;;;;;;13005201;22;20003;-84
2023/10/30 14:25:17;;;;;;;1.77;1.25;;;;;;;;;;13010863;22;20004;-83
2023/10/30 14:30:18;;;;;;;4.28;1.20;;;;;;;;;;13014207;22;20086;-84
2023/10/30 14:35:19;;;;;;;4.15;1.13;;;;;;;;;;13005550;22;20433;-84
2023/10/30 14:40:22;;;;;;;1.77;1.20;;;;;;;;;;13006042;22;20022;-84
2023/10/30 14:45:23;;;;;;;1.67;1.10;;;;;;;;;;12980205;22;20015;-83
2023/10/30 14:50:24;;;;;;;1.80;1.10;;;;;;;;;;13003201;22;20000;-83
2023/10/30 14:55:27;;;;;;;2.00;1.27;;;;;;;;;;13004608;22;20003;-82
2023/10/30 15:00:28;;;;;;;3.22;1.67;;;;;;;;;;13007835;22;20372;-82
2023/10/30 15:05:29;;;;;;;3.17;1.50;;;;;;;;;;13026380;22;20019;-82
2023/10/30 15:10:30;;;;;;;10.50;1.50;;;;;;;;;;13005660;22;19999;-84
2023/10/30 15:15:32;;;;;;;3.72;1.50;;;;;;;;;;13003732;22;20000;-86
2023/10/30 15:20:44;;;;;;;5.45;1.55;;;;;;;;;;13004831;22;20078;-83
2023/10/30 15:25:45;;;;;;;3.78;1.30;;;;;;;;;;13004636;22;20030;-84
2023/10/30 15:30:51;;;;;;;2.35;1.08;;;;;;;;;;13002525;22;20083;-85
2023/10/30 15:36:18;;;;;;;7.22;1.80;;;;;;;;;;13004611;22;20007;-84
2023/10/30 15:41:19;;;;;;;4.70;1.77;;;;;;;;;;13005151;22;20004;-81
2023/10/30 15:46:24;;;;;;;3.42;1.90;;;;;;;;;;13001849;22;20004;-83
2023/10/30 15:51:27;;;;;;;3.72;1.70;;;;;;;;;;13005345;22;19996;-80
2023/10/30 15:56:29;;;;;;;4.22;1.52;;;;;;;;;;13003320;22;20336;-81
2023/10/30 16:01:53;;;;;;;4.57;1.50;;;;;;;;;;13004893;22;20006;-81
2023/10/30 16:07:05;;;;;;;4.53;1.40;;;;;;;;;;13001914;22;20011;-79
2023/10/30 16:12:07;;;;;;;2.92;1.55;;;;;;;;;;13000475;22;19999;-80
2023/10/30 16:17:08;;;;;;;1.92;1.30;;;;;;;;;;13004365;22;19988;-82
2023/10/30 16:22:09;;;;;;;6.18;2.08;;;;;;;;;;13032178;22;20019;-83
2023/10/30 16:38:29;;;;;;;3.17;1.85;;;;;;;;;;12997212;22;20000;-82
2023/10/30 16:43:33;;;;;;;5.40;2.15;;;;;;;;;;13000833;22;20068;-81
2023/10/30 16:48:34;;;;;;;3.78;1.90;;;;;;;;;;12997906;22;20007;-82
2023/10/30 16:53:44;;;;;;;3.80;1.83;;;;;;;;;;12999656;22;19999;-83
2023/10/30 16:58:45;;;;;;;3.00;1.85;;;;;;;;;;13000851;22;20372;-81
2023/10/30 17:04:17;;;;;;;3.90;1.60;;;;;;;;;;13007539;22;20012;-84
2023/10/30 17:09:37;;;;;;;3.05;1.52;;;;;;;;;;13013381;22;20333;-84
2023/10/30 17:14:38;;;;;;;4.60;1.60;;;;;;;;;;13005633;22;20012;-85
2023/10/30 17:19:39;;;;;;;3.50;1.50;;;;;;;;;;12998378;22;20393;-85
2023/10/30 17:24:41;;;;;;;3.72;1.58;;;;;;;;;;13000884;22;20016;-82
2023/10/30 17:29:46;;;;;;;3.25;2.20;;;;;;;;;;13002919;22;19995;-84
2023/10/30 17:40:26;;;;;;;3.55;2.60;;;;;;;;;;12993150;22;20059;-86
2023/10/30 17:45:33;;;;;;;3.53;1.90;;;;;;;;;;12993898;22;20063;-86
2023/10/30 17:50:35;;;;;;;3.85;2.03;;;;;;;;;;12994477;22;20073;-86
2023/10/30 17:55:37;;;;;;;4.05;3.25;;;;;;;;;;12993976;22;20057;-86
2023/10/30 18:12:30;;;;;;;3.80;2.67;;;;;;;;;;12992327;22;20000;-86
2023/10/30 18:17:50;;;;;;;4.35;2.47;;;;;;;;;;12998793;22;20011;-86
2023/10/30 18:23:07;;;;;;;3.63;2.30;;;;;;;;;;12991941;22;20012;-86
2023/10/30 18:28:15;;;;;;;3.08;2.10;;;;;;;;;;12946797;22;20023;-86
2023/10/30 18:33:32;;;;;;;2.42;1.77;;;;;;;;;;12992927;22;19999;-86
2023/10/30 18:38:42;;;;;;;3.72;2.05;;;;;;;;;;12988810;22;20065;-87
2023/10/30 18:44:25;;;;;;;4.43;2.05;;;;;;;;;;12982736;22;20022;-87
2023/10/30 18:49:42;;;;;;;4.88;3.80;;;;;;;;;;12992142;22;20015;-87
2023/10/30 19:06:28;;;;;;;3.13;2.13;;;;;;;;;;12859649;22;20016;-86
